Ana Sayfa
METAR-TAF:

METAR-TAF

Havaalanları :

Waterville Robert LaFleur Airport

Waterville, Maine, Amerika Birleşik Devletleri

Enlem: 44-32N, Boylam: 069-41W, yükseklik: 101 m

Güncel hava durumu gözlemi

Rapor saat 18:56 UTC de 13 dakika önce yapıldı.
Sakin rüzgar
Sıcaklık 11°C
Nem 87%
Basınç 1002 hPa
Görüş mesafesi: 16.1 km
1200 ft yükseklikte çok bulutlu
hafif yağmur

METAR: KWVL 101856Z AUTO 00000KT 10SM -RA OVC012 11/09 A2959 RMK AO2 RAB33 SLP048 P0000 T01060094

Saat: 14:09 (19:09 UTC)


TAF: eksik

4.000'den fazla havaalanı için hava durumu gözlemleri ve tahminleri (METAR ve TAF raporları).

Kullanılabilir istasyonlar harita üzerinde sarı ve kırmızı noktalarla gösterilir.

İstasyonun adını görmek için fareyi noktanın üzerinde gezdirin.

Sonrasında hava gözlem ve tahminlerini görmek için tıklayın.

Haritayı değiştirmek için: yaklaştırmak için siyah artı işaretli yeşil düğmeye ve uzaklaştırmak için de eksi işaretli düğmeye hızla tıklayın; bitişik haritalar için yeşil okları kullanın.


METAR-TAF: